sensor_id;sensor_type;location;lat;lon;timestamp;P1;durP1;ratioP1;P2;durP2;ratioP2
54545;SDS011;40444;45.184;9.850;2022-12-31T16:13:00;59.80;;;39.77;;
54545;SDS011;40444;45.184;9.850;2022-12-31T16:15:29;68.85;;;44.78;;
54545;SDS011;40444;45.184;9.850;2022-12-31T16:18:01;67.72;;;46.05;;
54545;SDS011;40444;45.184;9.850;2022-12-31T16:20:32;65.28;;;45.33;;
54545;SDS011;40444;45.184;9.850;2022-12-31T16:23:01;68.32;;;45.95;;
54545;SDS011;40444;45.184;9.850;2022-12-31T16:25:30;59.03;;;43.17;;
54545;SDS011;40444;45.184;9.850;2022-12-31T16:28:00;59.17;;;42.38;;
54545;SDS011;40444;45.184;9.850;2022-12-31T16:30:31;59.65;;;41.75;;
54545;SDS011;40444;45.184;9.850;2022-12-31T16:33:03;57.90;;;41.25;;
54545;SDS011;40444;45.184;9.850;2022-12-31T16:35:38;54.40;;;39.97;;
54545;SDS011;40444;45.184;9.850;2022-12-31T16:38:12;52.95;;;40.05;;
54545;SDS011;40444;45.184;9.850;2022-12-31T16:41:39;60.50;;;42.60;;
54545;SDS011;40444;45.184;9.850;2022-12-31T16:43:51;59.47;;;41.88;;
54545;SDS011;40444;45.184;9.850;2022-12-31T16:46:21;56.08;;;40.88;;
54545;SDS011;40444;45.184;9.850;2022-12-31T16:49:02;60.13;;;42.53;;
54545;SDS011;40444;45.184;9.850;2022-12-31T16:51:43;56.30;;;41.35;;
54545;SDS011;40444;45.184;9.850;2022-12-31T16:54:19;54.33;;;40.90;;
54545;SDS011;40444;45.184;9.850;2022-12-31T16:56:55;57.92;;;40.95;;
54545;SDS011;40444;45.184;9.850;2022-12-31T16:59:27;57.42;;;42.10;;
54545;SDS011;40444;45.184;9.850;2022-12-31T17:02:02;59.13;;;41.27;;
54545;SDS011;40444;45.184;9.850;2022-12-31T17:04:36;57.03;;;41.08;;
54545;SDS011;40444;45.184;9.850;2022-12-31T17:10:31;53.03;;;38.92;;
54545;SDS011;40444;45.184;9.850;2022-12-31T17:13:01;53.47;;;37.08;;
54545;SDS011;40444;45.184;9.850;2022-12-31T17:15:56;51.55;;;37.17;;
54545;SDS011;40444;45.184;9.850;2022-12-31T17:18:28;49.00;;;36.80;;
54545;SDS011;40444;45.184;9.850;2022-12-31T17:21:09;52.55;;;36.60;;
54545;SDS011;40444;45.184;9.850;2022-12-31T17:23:38;50.92;;;37.13;;
54545;SDS011;40444;45.184;9.850;2022-12-31T17:26:10;46.45;;;35.80;;
54545;SDS011;40444;45.184;9.850;2022-12-31T17:28:42;50.92;;;35.67;;
54545;SDS011;40444;45.184;9.850;2022-12-31T17:36:40;51.63;;;36.60;;
54545;SDS011;40444;45.184;9.850;2022-12-31T17:39:25;50.75;;;36.38;;
54545;SDS011;40444;45.184;9.850;2022-12-31T17:42:06;50.70;;;35.67;;
54545;SDS011;40444;45.184;9.850;2022-12-31T17:44:41;49.88;;;37.30;;
54545;SDS011;40444;45.184;9.850;2022-12-31T17:47:12;49.47;;;35.97;;
54545;SDS011;40444;45.184;9.850;2022-12-31T17:49:43;49.65;;;36.85;;
54545;SDS011;40444;45.184;9.850;2022-12-31T17:52:13;49.33;;;36.53;;
54545;SDS011;40444;45.184;9.850;2022-12-31T17:54:43;50.00;;;36.08;;
54545;SDS011;40444;45.184;9.850;2022-12-31T17:57:23;49.17;;;36.05;;
54545;SDS011;40444;45.184;9.850;2022-12-31T17:59:54;50.97;;;35.72;;
54545;SDS011;40444;45.184;9.850;2022-12-31T18:02:22;48.50;;;35.35;;
54545;SDS011;40444;45.184;9.850;2022-12-31T18:04:51;48.65;;;35.85;;
54545;SDS011;40444;45.184;9.850;2022-12-31T18:07:24;50.53;;;36.60;;
54545;SDS011;40444;45.184;9.850;2022-12-31T18:09:53;54.13;;;38.25;;
54545;SDS011;40444;45.184;9.850;2022-12-31T18:12:22;49.10;;;36.50;;
54545;SDS011;40444;45.184;9.850;2022-12-31T18:14:50;48.35;;;36.78;;
54545;SDS011;40444;45.184;9.850;2022-12-31T18:17:19;50.45;;;35.47;;
54545;SDS011;40444;45.184;9.850;2022-12-31T18:19:48;47.38;;;35.80;;
54545;SDS011;40444;45.184;9.850;2022-12-31T18:22:36;46.00;;;35.13;;
54545;SDS011;40444;45.184;9.850;2022-12-31T18:25:08;50.47;;;37.55;;
54545;SDS011;40444;45.184;9.850;2022-12-31T18:27:40;49.65;;;36.35;;
54545;SDS011;40444;45.184;9.850;2022-12-31T18:30:09;48.92;;;37.40;;
54545;SDS011;40444;45.184;9.850;2022-12-31T18:32:39;47.20;;;35.58;;
54545;SDS011;40444;45.184;9.850;2022-12-31T18:35:13;50.17;;;36.85;;
54545;SDS011;40444;45.184;9.850;2022-12-31T18:38:13;50.67;;;36.42;;
54545;SDS011;40444;45.184;9.850;2022-12-31T18:40:47;50.92;;;37.58;;
54545;SDS011;40444;45.184;9.850;2022-12-31T18:43:21;48.95;;;35.55;;
54545;SDS011;40444;45.184;9.850;2022-12-31T18:45:50;51.17;;;38.58;;
54545;SDS011;40444;45.184;9.850;2022-12-31T18:48:19;51.45;;;37.33;;
54545;SDS011;40444;45.184;9.850;2022-12-31T18:50:48;50.30;;;37.65;;
54545;SDS011;40444;45.184;9.850;2022-12-31T18:53:18;55.03;;;40.28;;
54545;SDS011;40444;45.184;9.850;2022-12-31T18:55:49;55.42;;;40.55;;
54545;SDS011;40444;45.184;9.850;2022-12-31T18:58:19;51.83;;;38.83;;
54545;SDS011;40444;45.184;9.850;2022-12-31T19:00:48;54.67;;;37.85;;
54545;SDS011;40444;45.184;9.850;2022-12-31T19:03:18;54.17;;;39.50;;
54545;SDS011;40444;45.184;9.850;2022-12-31T19:05:49;52.60;;;37.90;;
54545;SDS011;40444;45.184;9.850;2022-12-31T19:08:19;50.70;;;37.92;;
54545;SDS011;40444;45.184;9.850;2022-12-31T19:10:49;56.50;;;38.53;;
54545;SDS011;40444;45.184;9.850;2022-12-31T19:13:19;50.72;;;39.10;;
54545;SDS011;40444;45.184;9.850;2022-12-31T19:15:48;55.30;;;40.50;;
54545;SDS011;40444;45.184;9.850;2022-12-31T19:18:18;54.80;;;39.17;;
54545;SDS011;40444;45.184;9.850;2022-12-31T19:20:46;54.08;;;37.58;;
54545;SDS011;40444;45.184;9.850;2022-12-31T19:23:16;57.03;;;39.53;;
54545;SDS011;40444;45.184;9.850;2022-12-31T19:25:47;55.05;;;38.90;;
54545;SDS011;40444;45.184;9.850;2022-12-31T19:28:20;54.10;;;40.35;;
54545;SDS011;40444;45.184;9.850;2022-12-31T19:33:20;58.67;;;39.60;;
54545;SDS011;40444;45.184;9.850;2022-12-31T19:35:49;54.17;;;40.00;;
54545;SDS011;40444;45.184;9.850;2022-12-31T19:38:19;60.95;;;42.10;;
54545;SDS011;40444;45.184;9.850;2022-12-31T19:40:50;54.70;;;40.45;;
54545;SDS011;40444;45.184;9.850;2022-12-31T19:43:20;55.63;;;40.20;;
54545;SDS011;40444;45.184;9.850;2022-12-31T19:45:50;59.88;;;42.00;;
54545;SDS011;40444;45.184;9.850;2022-12-31T19:48:20;59.97;;;41.15;;
54545;SDS011;40444;45.184;9.850;2022-12-31T19:50:58;55.28;;;39.80;;
54545;SDS011;40444;45.184;9.850;2022-12-31T19:53:27;61.83;;;42.70;;
54545;SDS011;40444;45.184;9.850;2022-12-31T19:55:56;58.60;;;41.75;;
54545;SDS011;40444;45.184;9.850;2022-12-31T19:58:24;59.40;;;41.03;;
54545;SDS011;40444;45.184;9.850;2022-12-31T20:00:55;57.33;;;39.88;;
54545;SDS011;40444;45.184;9.850;2022-12-31T20:03:30;60.33;;;41.65;;
54545;SDS011;40444;45.184;9.850;2022-12-31T20:06:03;60.33;;;40.80;;
54545;SDS011;40444;45.184;9.850;2022-12-31T20:08:34;58.95;;;40.80;;
54545;SDS011;40444;45.184;9.850;2022-12-31T20:11:09;57.53;;;40.80;;
54545;SDS011;40444;45.184;9.850;2022-12-31T20:13:39;56.58;;;39.03;;
54545;SDS011;40444;45.184;9.850;2022-12-31T20:16:09;56.80;;;40.40;;
54545;SDS011;40444;45.184;9.850;2022-12-31T20:18:42;58.67;;;40.28;;
54545;SDS011;40444;45.184;9.850;2022-12-31T20:21:14;55.70;;;39.83;;
54545;SDS011;40444;45.184;9.850;2022-12-31T20:23:46;56.22;;;39.85;;
54545;SDS011;40444;45.184;9.850;2022-12-31T20:26:16;60.55;;;42.28;;
54545;SDS011;40444;45.184;9.850;2022-12-31T20:28:46;58.03;;;41.15;;
54545;SDS011;40444;45.184;9.850;2022-12-31T20:31:15;58.53;;;40.80;;
54545;SDS011;40444;45.184;9.850;2022-12-31T20:33:46;58.90;;;41.33;;
54545;SDS011;40444;45.184;9.850;2022-12-31T20:39:09;58.88;;;41.88;;
54545;SDS011;40444;45.184;9.850;2022-12-31T20:41:38;59.70;;;40.47;;
54545;SDS011;40444;45.184;9.850;2022-12-31T20:44:07;56.03;;;40.05;;
54545;SDS011;40444;45.184;9.850;2022-12-31T20:46:36;57.95;;;39.78;;
54545;SDS011;40444;45.184;9.850;2022-12-31T20:49:05;58.28;;;40.85;;
54545;SDS011;40444;45.184;9.850;2022-12-31T20:51:33;59.90;;;41.35;;
54545;SDS011;40444;45.184;9.850;2022-12-31T20:54:05;56.08;;;39.15;;
54545;SDS011;40444;45.184;9.850;2022-12-31T20:56:36;58.28;;;40.97;;
54545;SDS011;40444;45.184;9.850;2022-12-31T20:59:07;59.78;;;41.13;;
54545;SDS011;40444;45.184;9.850;2022-12-31T21:01:36;55.78;;;39.97;;
54545;SDS011;40444;45.184;9.850;2022-12-31T21:04:26;63.08;;;40.40;;
54545;SDS011;40444;45.184;9.850;2022-12-31T21:06:54;58.90;;;41.45;;
54545;SDS011;40444;45.184;9.850;2022-12-31T21:09:23;61.83;;;42.55;;
54545;SDS011;40444;45.184;9.850;2022-12-31T21:11:52;62.90;;;42.30;;
54545;SDS011;40444;45.184;9.850;2022-12-31T21:14:39;60.10;;;42.10;;
54545;SDS011;40444;45.184;9.850;2022-12-31T21:17:11;56.50;;;40.45;;
54545;SDS011;40444;45.184;9.850;2022-12-31T21:19:39;54.20;;;39.40;;
54545;SDS011;40444;45.184;9.850;2022-12-31T21:22:08;56.05;;;38.92;;
54545;SDS011;40444;45.184;9.850;2022-12-31T21:24:36;57.13;;;38.35;;
54545;SDS011;40444;45.184;9.850;2022-12-31T21:27:06;55.22;;;39.78;;
54545;SDS011;40444;45.184;9.850;2022-12-31T21:29:34;54.47;;;40.05;;
54545;SDS011;40444;45.184;9.850;2022-12-31T21:32:23;62.33;;;41.20;;
54545;SDS011;40444;45.184;9.850;2022-12-31T21:34:52;58.63;;;41.45;;
54545;SDS011;40444;45.184;9.850;2022-12-31T21:37:40;60.47;;;41.42;;
54545;SDS011;40444;45.184;9.850;2022-12-31T21:40:27;61.43;;;41.17;;
54545;SDS011;40444;45.184;9.850;2022-12-31T21:42:56;62.10;;;41.97;;
54545;SDS011;40444;45.184;9.850;2022-12-31T21:45:25;58.08;;;40.85;;
54545;SDS011;40444;45.184;9.850;2022-12-31T21:47:57;59.55;;;40.35;;
54545;SDS011;40444;45.184;9.850;2022-12-31T21:50:49;57.03;;;40.53;;
54545;SDS011;40444;45.184;9.850;2022-12-31T21:53:19;61.25;;;40.65;;
54545;SDS011;40444;45.184;9.850;2022-12-31T21:55:55;56.03;;;39.95;;
54545;SDS011;40444;45.184;9.850;2022-12-31T21:58:36;60.22;;;40.22;;
54545;SDS011;40444;45.184;9.850;2022-12-31T22:01:18;57.20;;;39.80;;
54545;SDS011;40444;45.184;9.850;2022-12-31T22:04:06;59.53;;;40.30;;
54545;SDS011;40444;45.184;9.850;2022-12-31T22:06:55;56.10;;;38.90;;
54545;SDS011;40444;45.184;9.850;2022-12-31T22:09:23;57.15;;;38.30;;
54545;SDS011;40444;45.184;9.850;2022-12-31T22:11:51;56.67;;;38.80;;
54545;SDS011;40444;45.184;9.850;2022-12-31T22:14:20;60.47;;;39.92;;
54545;SDS011;40444;45.184;9.850;2022-12-31T22:16:49;56.03;;;39.10;;
54545;SDS011;40444;45.184;9.850;2022-12-31T22:19:17;56.35;;;37.78;;
54545;SDS011;40444;45.184;9.850;2022-12-31T22:21:46;54.05;;;37.25;;
54545;SDS011;40444;45.184;9.850;2022-12-31T22:24:14;57.00;;;37.58;;
54545;SDS011;40444;45.184;9.850;2022-12-31T22:26:43;58.58;;;38.45;;
54545;SDS011;40444;45.184;9.850;2022-12-31T22:29:13;52.22;;;36.92;;
54545;SDS011;40444;45.184;9.850;2022-12-31T22:31:42;54.15;;;36.58;;
54545;SDS011;40444;45.184;9.850;2022-12-31T22:34:10;55.40;;;36.42;;
54545;SDS011;40444;45.184;9.850;2022-12-31T22:36:38;53.05;;;36.95;;
54545;SDS011;40444;45.184;9.850;2022-12-31T22:39:08;54.28;;;36.53;;
54545;SDS011;40444;45.184;9.850;2022-12-31T22:42:01;52.92;;;34.35;;
54545;SDS011;40444;45.184;9.850;2022-12-31T22:44:30;54.13;;;34.72;;
54545;SDS011;40444;45.184;9.850;2022-12-31T22:46:58;51.72;;;35.17;;
54545;SDS011;40444;45.184;9.850;2022-12-31T22:49:26;50.28;;;34.05;;
54545;SDS011;40444;45.184;9.850;2022-12-31T22:51:54;54.45;;;33.67;;
54545;SDS011;40444;45.184;9.850;2022-12-31T22:54:29;60.22;;;36.47;;
54545;SDS011;40444;45.184;9.850;2022-12-31T22:56:57;58.55;;;37.05;;
54545;SDS011;40444;45.184;9.850;2022-12-31T22:59:26;59.90;;;35.45;;
54545;SDS011;40444;45.184;9.850;2022-12-31T23:01:54;60.63;;;36.28;;
54545;SDS011;40444;45.184;9.850;2022-12-31T23:04:23;57.60;;;34.63;;
54545;SDS011;40444;45.184;9.850;2022-12-31T23:06:51;61.65;;;36.35;;
54545;SDS011;40444;45.184;9.850;2022-12-31T23:09:19;63.05;;;36.95;;
54545;SDS011;40444;45.184;9.850;2022-12-31T23:12:07;55.80;;;33.53;;
54545;SDS011;40444;45.184;9.850;2022-12-31T23:14:38;57.13;;;34.55;;
54545;SDS011;40444;45.184;9.850;2022-12-31T23:17:25;58.95;;;34.33;;
54545;SDS011;40444;45.184;9.850;2022-12-31T23:23:00;54.20;;;33.40;;
54545;SDS011;40444;45.184;9.850;2022-12-31T23:25:37;52.80;;;33.60;;
54545;SDS011;40444;45.184;9.850;2022-12-31T23:28:09;47.95;;;32.13;;
54545;SDS011;40444;45.184;9.850;2022-12-31T23:30:39;54.65;;;34.10;;
54545;SDS011;40444;45.184;9.850;2022-12-31T23:33:11;51.28;;;33.20;;
54545;SDS011;40444;45.184;9.850;2022-12-31T23:35:44;49.30;;;32.83;;
54545;SDS011;40444;45.184;9.850;2022-12-31T23:38:13;54.75;;;35.83;;
54545;SDS011;40444;45.184;9.850;2022-12-31T23:40:44;55.70;;;35.30;;
54545;SDS011;40444;45.184;9.850;2022-12-31T23:43:17;66.47;;;43.67;;
54545;SDS011;40444;45.184;9.850;2022-12-31T23:45:50;76.57;;;51.03;;
54545;SDS011;40444;45.184;9.850;2022-12-31T23:48:20;79.03;;;51.75;;
54545;SDS011;40444;45.184;9.850;2022-12-31T23:50:49;78.00;;;54.03;;
54545;SDS011;40444;45.184;9.850;2022-12-31T23:53:23;88.43;;;56.53;;
54545;SDS011;40444;45.184;9.850;2022-12-31T23:55:52;79.70;;;54.13;;
54545;SDS011;40444;45.184;9.850;2022-12-31T23:58:21;77.10;;;51.42;;
